Terminal Aerodrome Forecast
Issued by NWS Cleveland, OH

Home | Current Version | Previous Version | Graphics & Text | Print | Product List | Glossary On
Versions: 1 2 3 4 5 6 7 8 9 10 11 12 13 14 15 16 17 18
000
FTUS41 KCLE 210300 AAB
TAFMFD
TAF AMD
KMFD 210316Z 2103/2124 21010KT P6SM VCSH SCT025 BKN060
      TEMPO 2106/2110 3SM -SHRA BR BKN025
     FM211000 23011KT 6SM BR VCSH SCT012 BKN030
      TEMPO 2110/2114 4SM -SHRA BR SCT009 OVC015
     FM211400 25011KT P6SM BKN030
     FM211900 28014G20KT P6SM VCSH BKN035=

USA.gov is the U.S. government's official web portal to all federal, state and local government web resources and services.